Time;durP1;ratioP1;P1;durP2;ratioP2;P2;SDS_P1;SDS_P2;PMS_P1;PMS_P2;Temp;Humidity;BMP_temperature;BMP_pressure;BME280_temperature;BME280_humidity;BME280_pressure;Samples;Min_cycle;Max_cycle;Signal;HPM_P1;HPM_P2
2021/04/18 00:02:10;;;;;;;12.87;11.13;;;9.10;74.30;;;;;;5021523;28;20240;-78
2021/04/18 00:04:43;;;;;;;14.17;11.60;;;9.10;74.40;;;;;;5032673;28;20234;-80
2021/04/18 00:07:10;;;;;;;13.13;11.20;;;9.10;74.50;;;;;;5037648;28;20673;-78
2021/04/18 00:09:37;;;;;;;14.07;11.50;;;9.10;74.50;;;;;;5036906;28;20212;-80
2021/04/18 00:12:04;;;;;;;18.93;13.03;;;9.10;74.40;;;;;;5037345;28;20227;-79
2021/04/18 00:14:31;;;;;;;15.33;11.90;;;9.10;74.90;;;;;;5026754;28;20238;-80
2021/04/18 00:17:01;;;;;;;15.47;12.43;;;9.10;74.10;;;;;;5020485;28;20549;-81
2021/04/18 00:19:30;;;;;;;15.67;12.70;;;9.10;74.30;;;;;;5036883;28;20223;-80
2021/04/18 00:21:57;;;;;;;14.33;12.77;;;9.10;74.50;;;;;;5051991;28;20223;-80
2021/04/18 00:24:24;;;;;;;15.00;13.40;;;9.10;74.60;;;;;;5059981;28;20670;-81
2021/04/18 00:26:50;;;;;;;15.63;14.03;;;9.10;74.50;;;;;;5048458;28;20215;-80
2021/04/18 00:29:17;;;;;;;15.47;13.63;;;9.10;74.60;;;;;;5040524;28;20280;-80
2021/04/18 00:31:44;;;;;;;14.93;13.43;;;9.10;74.90;;;;;;5037391;28;20223;-81
2021/04/18 00:34:10;;;;;;;15.90;14.17;;;9.10;75.30;;;;;;5041450;28;20310;-80
2021/04/18 00:36:37;;;;;;;16.43;14.03;;;9.10;75.50;;;;;;5035330;28;20223;-81
2021/04/18 00:39:04;;;;;;;15.60;13.43;;;9.10;75.60;;;;;;5027859;28;20216;-80
2021/04/18 00:41:33;;;;;;;15.00;13.37;;;9.10;75.70;;;;;;5025254;28;20247;-80
2021/04/18 00:44:00;;;;;;;16.03;12.90;;;9.10;75.70;;;;;;5020663;28;20262;-80
2021/04/18 00:46:27;;;;;;;14.83;13.20;;;9.10;75.60;;;;;;5040598;28;20222;-80
2021/04/18 00:48:54;;;;;;;14.67;13.10;;;9.10;75.50;;;;;;5031754;28;20285;-80
2021/04/18 00:51:21;;;;;;;16.67;14.90;;;9.10;75.50;;;;;;5032044;28;20676;-80
2021/04/18 00:53:48;;;;;;;16.00;14.10;;;9.10;75.50;;;;;;5036007;28;20215;-80
2021/04/18 00:56:15;;;;;;;17.03;14.40;;;9.00;75.70;;;;;;5039963;28;20623;-81
2021/04/18 00:58:41;;;;;;;17.20;13.77;;;9.10;76.00;;;;;;5033177;28;20998;-81
2021/04/18 01:01:08;;;;;;;17.93;14.27;;;9.00;76.00;;;;;;5031947;28;20254;-80
2021/04/18 01:03:53;;;;;;;17.70;14.47;;;9.00;76.00;;;;;;5030174;28;20664;-81
2021/04/18 01:06:20;;;;;;;15.77;13.70;;;9.00;76.20;;;;;;5031769;28;20243;-80
2021/04/18 01:08:47;;;;;;;22.43;14.17;;;9.00;76.20;;;;;;5050193;28;20634;-81
2021/04/18 01:11:14;;;;;;;15.33;13.73;;;8.90;76.00;;;;;;5042487;28;20221;-80
2021/04/18 01:13:40;;;;;;;17.03;14.47;;;8.90;76.30;;;;;;5040585;28;20314;-80
2021/04/18 01:16:07;;;;;;;16.77;14.13;;;8.90;76.70;;;;;;5042684;28;20260;-81
2021/04/18 01:18:34;;;;;;;21.17;15.17;;;8.90;76.70;;;;;;5045490;28;20219;-81
2021/04/18 01:21:09;;;;;;;18.87;15.00;;;8.90;76.70;;;;;;5022937;28;20219;-80
2021/04/18 01:23:36;;;;;;;18.70;15.17;;;8.90;76.90;;;;;;5026309;28;20234;-80
2021/04/18 01:26:04;;;;;;;20.13;14.87;;;8.80;77.00;;;;;;5034243;28;20602;-80
2021/04/18 01:28:35;;;;;;;20.77;14.87;;;8.80;77.30;;;;;;5026483;28;20640;-80
2021/04/18 01:31:03;;;;;;;18.97;13.97;;;8.80;77.60;;;;;;5033747;28;20210;-80
2021/04/18 01:33:35;;;;;;;17.73;15.90;;;8.80;77.90;;;;;;5034345;28;20276;-81
2021/04/18 01:36:04;;;;;;;17.87;14.73;;;8.80;78.00;;;;;;5055607;28;20248;-81
2021/04/18 01:38:33;;;;;;;16.47;14.73;;;8.80;78.10;;;;;;5038176;28;20633;-80
2021/04/18 01:41:00;;;;;;;18.53;15.90;;;8.80;78.10;;;;;;5023359;28;20235;-81
2021/04/18 01:43:27;;;;;;;17.67;14.57;;;8.70;78.00;;;;;;5043262;28;20225;-79
2021/04/18 01:45:54;;;;;;;17.00;15.20;;;8.70;78.00;;;;;;5047618;28;20271;-81
2021/04/18 01:48:21;;;;;;;18.07;14.47;;;8.70;78.10;;;;;;5050610;28;20214;-80
2021/04/18 01:50:50;;;;;;;17.53;14.87;;;8.70;78.30;;;;;;5041267;28;20228;-78
2021/04/18 01:53:18;;;;;;;18.60;15.33;;;8.70;78.20;;;;;;5061984;28;20300;-80
2021/04/18 01:55:45;;;;;;;18.57;15.17;;;8.70;78.20;;;;;;5057417;28;20214;-79
2021/04/18 01:58:12;;;;;;;19.67;15.80;;;8.70;78.20;;;;;;5049669;28;20221;-80
2021/04/18 02:00:39;;;;;;;21.73;16.27;;;8.70;78.40;;;;;;5048462;28;20736;-80
2021/04/18 02:03:06;;;;;;;17.07;15.27;;;8.70;78.30;;;;;;5030186;28;20631;-80
2021/04/18 02:05:34;;;;;;;18.53;14.57;;;8.70;78.10;;;;;;5025381;28;20617;-80
2021/04/18 02:08:02;;;;;;;19.87;15.23;;;8.70;78.40;;;;;;5025824;28;20244;-80
2021/04/18 02:10:28;;;;;;;19.07;14.00;;;8.70;79.20;;;;;;5022358;28;20635;-80
2021/04/18 02:12:55;;;;;;;16.93;15.13;;;8.70;78.60;;;;;;5034923;28;20647;-81
2021/04/18 02:15:22;;;;;;;18.47;15.00;;;8.70;78.50;;;;;;5035458;28;20257;-80
2021/04/18 02:17:49;;;;;;;17.00;13.43;;;8.70;78.70;;;;;;5022581;28;20234;-81
2021/04/18 02:20:17;;;;;;;16.83;14.33;;;8.70;78.50;;;;;;5022268;28;20628;-80
2021/04/18 02:22:45;;;;;;;18.13;14.83;;;8.70;78.40;;;;;;5018942;28;20216;-80
2021/04/18 02:25:13;;;;;;;17.53;15.23;;;8.70;78.50;;;;;;5018876;28;20327;-80
2021/04/18 02:27:41;;;;;;;22.33;14.93;;;8.70;78.70;;;;;;5022580;28;20314;-80
2021/04/18 02:30:09;;;;;;;18.17;15.30;;;8.70;78.80;;;;;;5019530;28;20204;-80
2021/04/18 02:32:35;;;;;;;19.37;16.17;;;8.70;78.90;;;;;;5033268;28;20218;-80
2021/04/18 02:35:05;;;;;;;17.77;14.07;;;8.70;78.80;;;;;;5029815;28;20270;-79
2021/04/18 02:37:31;;;;;;;17.10;14.93;;;8.70;78.90;;;;;;5029933;28;20221;-80
2021/04/18 02:39:58;;;;;;;24.03;16.00;;;8.70;79.10;;;;;;5028620;28;20220;-80
2021/04/18 02:42:25;;;;;;;19.27;15.30;;;8.70;79.20;;;;;;5026023;28;20233;-81
2021/04/18 02:44:52;;;;;;;17.53;15.07;;;8.70;79.00;;;;;;5017758;28;20240;-80
2021/04/18 02:47:18;;;;;;;20.67;16.43;;;8.70;79.00;;;;;;5025814;28;20262;-81
2021/04/18 02:49:46;;;;;;;17.80;15.43;;;8.70;79.10;;;;;;5033901;28;20311;-80
2021/04/18 02:52:12;;;;;;;17.53;15.33;;;8.70;79.00;;;;;;5032300;28;20222;-80
2021/04/18 02:54:39;;;;;;;15.00;13.43;;;8.70;79.20;;;;;;5033726;28;20229;-78
2021/04/18 02:57:06;;;;;;;19.00;14.53;;;8.70;79.60;;;;;;5027440;28;20227;-81
2021/04/18 02:59:33;;;;;;;17.17;14.60;;;8.70;79.80;;;;;;5037238;28;20225;-80
2021/04/18 03:01:59;;;;;;;16.43;14.53;;;8.70;79.70;;;;;;5030238;28;20602;-80
2021/04/18 03:04:27;;;;;;;19.13;15.50;;;8.70;80.00;;;;;;5021742;28;20219;-80
2021/04/18 03:06:54;;;;;;;19.60;15.97;;;8.70;80.20;;;;;;5037443;28;20277;-80
2021/04/18 03:09:20;;;;;;;16.97;14.90;;;8.70;80.20;;;;;;5030498;28;20227;-80
2021/04/18 03:11:47;;;;;;;17.10;15.30;;;8.70;80.00;;;;;;5037109;28;20207;-80
2021/04/18 03:14:14;;;;;;;18.80;15.90;;;8.70;80.00;;;;;;5034290;28;20237;-81
2021/04/18 03:16:41;;;;;;;16.83;14.83;;;8.60;80.10;;;;;;5033993;28;20230;-80
2021/04/18 03:19:08;;;;;;;19.50;15.20;;;8.70;80.40;;;;;;5033757;28;20270;-80
2021/04/18 03:21:35;;;;;;;18.13;16.13;;;8.70;80.60;;;;;;5018275;28;20229;-80
2021/04/18 03:24:02;;;;;;;18.80;15.90;;;8.70;80.70;;;;;;5031656;28;20207;-81
2021/04/18 03:26:28;;;;;;;18.97;15.97;;;8.60;80.70;;;;;;5030344;28;20235;-81
2021/04/18 03:28:55;;;;;;;18.37;16.10;;;8.70;80.70;;;;;;5032879;28;20208;-80
2021/04/18 03:31:22;;;;;;;18.60;16.37;;;8.70;80.70;;;;;;5017425;28;20207;-81
2021/04/18 03:34:07;;;;;;;18.57;14.90;;;8.70;80.80;;;;;;5017899;28;20187;-80
2021/04/18 03:36:34;;;;;;;18.57;15.33;;;8.60;80.70;;;;;;5031758;28;20218;-80
2021/04/18 03:39:00;;;;;;;16.43;14.50;;;8.60;80.80;;;;;;5022155;28;20216;-80
2021/04/18 03:41:27;;;;;;;16.13;14.43;;;8.60;80.90;;;;;;5030351;28;20223;-80
2021/04/18 03:43:54;;;;;;;21.90;15.93;;;8.50;80.70;;;;;;5037952;28;20289;-81
2021/04/18 03:46:21;;;;;;;17.23;15.37;;;8.50;80.70;;;;;;5026643;28;20257;-81
2021/04/18 03:48:48;;;;;;;17.13;15.23;;;8.50;80.50;;;;;;5031122;28;20649;-81
2021/04/18 03:51:15;;;;;;;19.80;16.67;;;8.50;80.60;;;;;;5031285;28;20596;-81
2021/04/18 03:54:25;;;;;;;20.10;16.77;;;8.50;81.00;;;;;;5018233;28;20308;-81
2021/04/18 03:57:07;;;;;;;18.30;15.23;;;8.60;81.30;;;;;;5014709;28;20210;-80
2021/04/18 03:59:34;;;;;;;19.87;16.70;;;8.60;81.20;;;;;;5017978;28;20219;-81
2021/04/18 04:02:01;;;;;;;18.60;15.73;;;8.60;81.10;;;;;;5021951;28;20342;-80
2021/04/18 04:04:28;;;;;;;20.20;15.10;;;8.60;81.10;;;;;;5036852;28;20253;-81
2021/04/18 04:06:58;;;;;;;15.33;13.80;;;8.60;81.10;;;;;;5027452;28;20248;-79
2021/04/18 04:09:25;;;;;;;16.53;14.70;;;8.60;81.50;;;;;;5028599;28;20298;-80
2021/04/18 04:11:51;;;;;;;18.10;15.50;;;8.60;81.70;;;;;;5019110;28;20219;-80
2021/04/18 04:14:18;;;;;;;18.40;15.37;;;8.60;81.80;;;;;;5030621;28;20215;-80
2021/04/18 04:16:45;;;;;;;17.47;15.53;;;8.60;82.10;;;;;;5029916;28;20233;-81
2021/04/18 04:19:12;;;;;;;18.07;16.17;;;8.60;82.10;;;;;;5024435;28;20227;-81
2021/04/18 04:21:38;;;;;;;17.97;16.07;;;8.60;82.20;;;;;;5039422;28;20227;-80
2021/04/18 04:24:06;;;;;;;16.97;15.17;;;8.60;82.30;;;;;;5040113;28;20219;-80
2021/04/18 04:26:33;;;;;;;19.03;16.07;;;8.60;82.30;;;;;;5036296;28;20268;-81
2021/04/18 04:29:00;;;;;;;18.57;16.30;;;8.60;82.30;;;;;;5028499;28;20603;-80
2021/04/18 04:31:27;;;;;;;17.27;15.37;;;8.60;82.30;;;;;;5021932;28;20208;-81
2021/04/18 04:33:54;;;;;;;21.20;15.80;;;8.60;82.60;;;;;;5032984;28;20222;-80
2021/04/18 04:36:21;;;;;;;20.70;16.80;;;8.60;82.80;;;;;;5035085;28;20229;-81
2021/04/18 04:38:49;;;;;;;19.70;16.87;;;8.60;83.00;;;;;;5036922;28;20215;-81
2021/04/18 04:41:17;;;;;;;17.63;15.50;;;8.60;83.20;;;;;;5026193;28;20556;-81
2021/04/18 04:43:47;;;;;;;19.23;15.90;;;8.50;83.30;;;;;;5031873;28;20245;-81
2021/04/18 04:46:14;;;;;;;17.80;15.93;;;8.50;83.50;;;;;;5035851;28;20232;-81
2021/04/18 04:48:41;;;;;;;19.97;16.20;;;8.50;83.60;;;;;;5019975;28;20208;-81
2021/04/18 04:51:08;;;;;;;20.03;16.93;;;8.50;83.80;;;;;;5030447;28;20215;-81
2021/04/18 04:53:35;;;;;;;19.27;16.27;;;8.50;83.90;;;;;;5039706;28;20210;-81
2021/04/18 04:56:03;;;;;;;21.37;17.30;;;8.50;84.00;;;;;;5027287;28;20258;-81
2021/04/18 04:58:30;;;;;;;22.07;16.70;;;8.60;84.20;;;;;;5022548;28;20226;-81
2021/04/18 05:00:57;;;;;;;18.67;16.67;;;8.50;84.10;;;;;;5032007;28;20813;-80
2021/04/18 05:03:26;;;;;;;20.43;15.87;;;8.50;84.10;;;;;;5038048;28;20223;-80
2021/04/18 05:05:54;;;;;;;17.33;15.37;;;8.50;84.10;;;;;;5026396;28;20231;-80
2021/04/18 05:08:22;;;;;;;21.13;15.50;;;8.50;84.30;;;;;;5036312;28;20242;-80
2021/04/18 05:10:49;;;;;;;18.53;15.53;;;8.50;84.60;;;;;;5039311;28;20218;-81
2021/04/18 05:13:16;;;;;;;19.13;16.73;;;8.50;84.70;;;;;;5038938;28;20221;-80
2021/04/18 05:15:43;;;;;;;20.07;17.10;;;8.50;84.80;;;;;;5047323;28;20245;-80
2021/04/18 05:18:09;;;;;;;19.80;16.37;;;8.50;84.80;;;;;;5060090;28;20226;-81
2021/04/18 05:20:36;;;;;;;18.13;16.23;;;8.50;84.80;;;;;;5046706;28;20229;-81
2021/04/18 05:23:03;;;;;;;21.43;16.17;;;8.50;84.70;;;;;;5028742;28;20222;-80
2021/04/18 05:25:30;;;;;;;19.33;16.33;;;8.60;84.70;;;;;;5039324;28;20243;-80
2021/04/18 05:27:56;;;;;;;20.80;16.27;;;8.50;84.70;;;;;;5022690;28;20301;-80
2021/04/18 05:30:24;;;;;;;22.30;16.97;;;8.50;84.80;;;;;;5032270;28;20545;-80
2021/04/18 05:32:50;;;;;;;19.23;16.70;;;8.50;85.40;;;;;;5030613;28;20215;-81
2021/04/18 05:35:17;;;;;;;23.57;17.13;;;8.50;84.80;;;;;;5047196;28;20228;-79
2021/04/18 05:38:01;;;;;;;22.20;15.93;;;8.60;84.80;;;;;;5022206;28;20218;-81
2021/04/18 05:40:27;;;;;;;20.37;15.97;;;8.60;84.90;;;;;;5022316;28;20225;-80
2021/04/18 05:42:55;;;;;;;17.60;15.77;;;8.60;84.70;;;;;;5033221;28;20223;-80
2021/04/18 05:45:22;;;;;;;21.97;17.17;;;8.70;84.60;;;;;;5041700;28;20238;-80
2021/04/18 05:48:06;;;;;;;19.00;16.30;;;8.70;84.70;;;;;;5037888;28;20469;-81
2021/04/18 05:50:35;;;;;;;20.07;17.03;;;8.80;84.90;;;;;;5041991;28;20536;-79
2021/04/18 05:53:01;;;;;;;19.13;17.03;;;8.90;84.70;;;;;;5028151;28;20219;-80
2021/04/18 05:55:29;;;;;;;20.20;16.57;;;9.00;84.40;;;;;;5038565;28;20219;-80
2021/04/18 05:58:04;;;;;;;17.17;15.17;;;9.00;84.20;;;;;;5041310;28;20218;-80
2021/04/18 06:00:30;;;;;;;18.10;15.43;;;9.10;84.10;;;;;;5015310;28;20229;-81
2021/04/18 06:02:57;;;;;;;17.47;14.90;;;9.10;83.90;;;;;;5032801;28;20306;-80
2021/04/18 06:05:24;;;;;;;19.13;16.53;;;9.20;84.00;;;;;;5054209;28;20566;-80
2021/04/18 06:07:55;;;;;;;20.87;16.53;;;9.40;83.90;;;;;;5017783;28;20314;-80
2021/04/18 06:10:22;;;;;;;18.60;16.47;;;9.70;83.60;;;;;;5032684;28;20221;-80
2021/04/18 06:12:49;;;;;;;19.10;15.07;;;10.10;82.50;;;;;;5017759;28;20211;-81
2021/04/18 06:15:16;;;;;;;20.20;16.07;;;10.50;81.60;;;;;;5012675;28;20222;-81
2021/04/18 06:17:43;;;;;;;17.07;15.27;;;11.00;80.60;;;;;;5037056;28;20231;-80
2021/04/18 06:20:11;;;;;;;21.23;15.83;;;11.30;79.30;;;;;;5022874;28;20215;-81
2021/04/18 06:22:41;;;;;;;17.37;15.57;;;11.60;78.60;;;;;;5025584;28;20220;-80
2021/04/18 06:25:08;;;;;;;23.53;18.87;;;11.70;77.80;;;;;;5002162;28;20267;-81
2021/04/18 06:27:35;;;;;;;199.63;178.17;;;11.90;77.10;;;;;;5006337;28;20210;-80
2021/04/18 06:30:02;;;;;;;33.73;27.37;;;11.80;76.50;;;;;;5026490;28;20228;-80
2021/04/18 06:32:29;;;;;;;24.90;18.47;;;11.70;76.30;;;;;;5011162;28;20219;-81
2021/04/18 06:35:01;;;;;;;120.27;68.77;;;11.70;76.60;;;;;;5016758;28;20212;-81
2021/04/18 06:37:31;;;;;;;66.73;43.37;;;11.80;76.70;;;;;;5007935;28;20226;-80
2021/04/18 06:39:58;;;;;;;784.17;569.63;;;11.80;76.60;;;;;;5022883;28;20545;-81
2021/04/18 06:42:25;;;;;;;900.13;402.37;;;11.90;76.80;;;;;;5026895;28;20253;-81
2021/04/18 06:44:52;;;;;;;312.60;150.03;;;12.10;76.80;;;;;;5031321;28;20233;-80
2021/04/18 06:47:19;;;;;;;328.97;166.83;;;12.50;76.30;;;;;;5034015;28;20310;-80
2021/04/18 06:49:47;;;;;;;42.03;27.33;;;12.80;74.30;;;;;;5019677;28;20242;-80
2021/04/18 06:52:14;;;;;;;78.90;46.00;;;12.90;73.90;;;;;;5013967;28;20220;-80
2021/04/18 06:54:41;;;;;;;33.60;22.20;;;13.10;73.80;;;;;;5039054;28;20211;-81
2021/04/18 06:57:08;;;;;;;19.03;16.30;;;13.30;73.30;;;;;;5034807;28;20481;-80
2021/04/18 06:59:37;;;;;;;18.77;16.10;;;13.40;73.10;;;;;;5018697;28;20226;-81
2021/04/18 07:02:21;;;;;;;27.23;22.43;;;13.50;72.50;;;;;;5012081;28;20220;-80
2021/04/18 07:05:00;;;;;;;41.57;26.67;;;13.50;71.60;;;;;;5034496;28;20341;-81
2021/04/18 07:07:32;;;;;;;22.10;17.03;;;13.50;71.40;;;;;;5015822;28;20239;-81
2021/04/18 07:10:00;;;;;;;15.30;13.70;;;13.50;71.70;;;;;;5020561;28;20211;-81
2021/04/18 07:12:31;;;;;;;15.73;14.07;;;13.40;69.50;;;;;;5021169;28;20241;-81
2021/04/18 07:14:59;;;;;;;16.43;13.90;;;13.20;68.80;;;;;;5038878;28;20191;-81
2021/04/18 07:17:29;;;;;;;16.13;13.47;;;13.10;68.20;;;;;;5017446;28;20628;-78
2021/04/18 07:20:10;;;;;;;16.77;14.70;;;12.90;69.50;;;;;;5021865;28;20250;-79
2021/04/18 07:22:37;;;;;;;20.77;16.03;;;12.80;69.80;;;;;;5025407;28;20535;-78
2021/04/18 07:25:06;;;;;;;19.03;14.70;;;12.80;70.30;;;;;;5038445;28;20231;-80
2021/04/18 07:28:03;;;;;;;21.03;15.27;;;12.90;70.40;;;;;;5024175;28;20227;-81
2021/04/18 07:30:46;;;;;;;17.77;14.93;;;12.90;69.90;;;;;;4996457;28;20215;-81
2021/04/18 07:33:13;;;;;;;16.97;13.67;;;12.90;70.20;;;;;;4994973;28;20208;-80
2021/04/18 07:35:41;;;;;;;20.20;15.47;;;13.00;69.00;;;;;;5020785;28;20215;-80
2021/04/18 07:38:18;;;;;;;16.50;14.57;;;13.00;69.20;;;;;;5016668;28;20215;-80
2021/04/18 07:40:47;;;;;;;18.67;15.30;;;13.20;69.40;;;;;;5021379;28;20217;-80
2021/04/18 07:43:14;;;;;;;18.67;14.43;;;13.30;68.80;;;;;;5028195;28;20216;-80
2021/04/18 07:45:45;;;;;;;19.70;15.97;;;13.30;66.30;;;;;;5036075;28;20233;-82
2021/04/18 07:48:13;;;;;;;20.33;14.93;;;13.30;65.70;;;;;;5020734;28;20250;-81
2021/04/18 07:50:43;;;;;;;19.80;15.23;;;13.20;65.80;;;;;;5021481;28;20215;-82
2021/04/18 07:53:10;;;;;;;20.97;15.10;;;13.20;66.40;;;;;;5029959;28;20624;-80
2021/04/18 07:55:37;;;;;;;18.10;14.23;;;13.30;66.90;;;;;;5017627;28;20877;-81
2021/04/18 07:58:04;;;;;;;17.60;13.90;;;13.40;66.90;;;;;;5024351;28;20219;-80
2021/04/18 08:00:32;;;;;;;15.10;13.60;;;13.40;66.00;;;;;;5029713;28;20228;-81
2021/04/18 08:02:59;;;;;;;19.00;13.37;;;13.40;66.60;;;;;;5016804;28;20800;-80
2021/04/18 08:05:32;;;;;;;19.07;13.53;;;13.50;65.60;;;;;;5018581;28;20326;-81
2021/04/18 08:08:14;;;;;;;19.20;13.70;;;13.60;65.30;;;;;;5046814;28;20246;-81
2021/04/18 08:10:43;;;;;;;18.67;14.33;;;13.70;65.50;;;;;;5044681;28;20241;-81
2021/04/18 08:13:24;;;;;;;16.30;13.67;;;13.80;64.50;;;;;;5043758;28;20214;-81
2021/04/18 08:15:58;;;;;;;18.10;14.70;;;13.90;64.60;;;;;;5037479;28;20236;-81
2021/04/18 08:18:28;;;;;;;17.70;13.47;;;14.20;65.50;;;;;;5041298;28;20627;-81
2021/04/18 08:20:56;;;;;;;18.90;14.60;;;14.70;62.10;;;;;;5026243;28;20211;-80
2021/04/18 08:23:23;;;;;;;16.87;14.10;;;15.10;61.90;;;;;;5044438;28;20220;-80
2021/04/18 08:26:05;;;;;;;17.87;15.97;;;15.50;61.40;;;;;;5059590;28;20240;-82
2021/04/18 08:28:55;;;;;;;18.33;15.57;;;15.70;59.60;;;;;;5037468;28;20215;-81
2021/04/18 08:31:33;;;;;;;17.33;14.97;;;15.60;58.60;;;;;;5023879;28;20635;-80
2021/04/18 08:34:02;;;;;;;17.67;14.77;;;15.60;59.90;;;;;;5037283;28;20218;-81
2021/04/18 08:36:34;;;;;;;18.07;13.60;;;15.60;60.10;;;;;;5028219;28;20309;-80
2021/04/18 08:39:04;;;;;;;16.13;14.50;;;15.70;60.60;;;;;;5038644;28;20252;-80
2021/04/18 08:41:52;;;;;;;17.97;14.87;;;15.70;60.10;;;;;;5039125;28;20226;-81
2021/04/18 08:44:27;;;;;;;15.40;13.80;;;15.60;59.90;;;;;;5040340;28;20203;-80
2021/04/18 08:47:06;;;;;;;20.53;14.20;;;15.50;58.70;;;;;;5040616;28;20245;-81
2021/04/18 08:49:37;;;;;;;15.23;13.63;;;15.40;59.10;;;;;;5040007;28;20643;-81
2021/04/18 08:52:07;;;;;;;16.63;14.40;;;15.60;59.70;;;;;;5023357;28;20625;-82
2021/04/18 08:54:43;;;;;;;14.30;12.77;;;15.60;56.90;;;;;;5030941;28;20211;-79
2021/04/18 08:57:13;;;;;;;18.80;13.60;;;15.60;58.40;;;;;;5048292;28;20647;-80
2021/04/18 08:59:45;;;;;;;14.03;12.47;;;15.70;58.10;;;;;;5032284;28;20221;-81
2021/04/18 09:02:14;;;;;;;13.53;11.97;;;16.00;58.80;;;;;;5042965;28;20281;-81
2021/04/18 09:04:46;;;;;;;14.57;12.27;;;16.30;56.70;;;;;;5025958;28;20298;-79
2021/04/18 09:07:18;;;;;;;16.00;12.80;;;16.40;56.80;;;;;;5019384;28;20243;-79
2021/04/18 09:09:47;;;;;;;12.33;10.40;;;16.60;53.60;;;;;;5032434;28;20211;-80
2021/04/18 09:12:16;;;;;;;12.50;11.20;;;16.40;53.50;;;;;;5039366;28;20250;-80
2021/04/18 09:14:48;;;;;;;13.03;11.13;;;16.20;53.60;;;;;;5011077;28;20219;-81
2021/04/18 09:17:16;;;;;;;12.57;10.53;;;16.20;54.30;;;;;;5013396;28;20243;-79
2021/04/18 09:20:06;;;;;;;13.67;10.90;;;16.50;55.00;;;;;;5009947;28;20215;-81
2021/04/18 09:22:40;;;;;;;12.57;10.30;;;16.60;54.20;;;;;;5006213;28;20682;-80
2021/04/18 09:25:18;;;;;;;13.30;11.53;;;16.80;51.30;;;;;;5035613;28;20218;-80
2021/04/18 09:27:46;;;;;;;14.67;11.00;;;16.80;52.20;;;;;;5023288;28;20220;-81
2021/04/18 09:30:16;;;;;;;13.93;10.63;;;16.70;52.50;;;;;;5032172;28;20219;-80
2021/04/18 09:32:48;;;;;;;12.60;10.60;;;16.70;52.60;;;;;;5022000;28;20247;-82
2021/04/18 09:35:18;;;;;;;11.57;8.93;;;16.90;52.30;;;;;;5011912;28;20231;-79
2021/04/18 09:37:59;;;;;;;13.87;11.23;;;17.10;51.90;;;;;;5005812;28;20616;-80
2021/04/18 09:40:37;;;;;;;8.43;7.63;;;17.30;52.20;;;;;;5021620;28;20298;-81
2021/04/18 09:43:06;;;;;;;8.43;7.07;;;17.30;48.40;;;;;;5038024;28;20219;-81
2021/04/18 09:45:35;;;;;;;10.90;7.47;;;16.90;49.10;;;;;;5030550;28;20606;-81
2021/04/18 09:48:18;;;;;;;10.90;8.30;;;16.80;48.30;;;;;;5029876;28;20265;-81
2021/04/18 09:51:12;;;;;;;10.83;7.80;;;16.40;48.60;;;;;;5025221;28;20445;-81
2021/04/18 09:53:40;;;;;;;11.03;8.83;;;16.10;50.60;;;;;;4998707;28;20211;-80
2021/04/18 09:56:08;;;;;;;10.37;8.73;;;15.80;51.00;;;;;;5023372;28;20230;-81
2021/04/18 09:58:41;;;;;;;11.10;9.00;;;15.60;51.30;;;;;;5037488;28;20215;-80
2021/04/18 10:01:24;;;;;;;13.13;8.80;;;15.50;51.30;;;;;;5020420;28;20242;-80
2021/04/18 10:03:51;;;;;;;9.33;8.07;;;15.40;51.80;;;;;;5038977;28;20230;-79
2021/04/18 10:06:19;;;;;;;9.13;7.07;;;15.40;52.20;;;;;;5025864;28;20318;-80
2021/04/18 10:09:02;;;;;;;9.43;7.30;;;15.40;51.10;;;;;;5027670;28;20239;-81
2021/04/18 10:11:29;;;;;;;7.83;7.03;;;15.60;51.80;;;;;;5019660;28;20216;-81
2021/04/18 10:13:58;;;;;;;9.57;8.17;;;15.70;50.70;;;;;;5021833;28;20207;-80
2021/04/18 10:16:42;;;;;;;6.00;5.23;;;15.80;51.10;;;;;;5018679;28;20304;-82
2021/04/18 10:19:21;;;;;;;8.07;5.00;;;15.90;50.80;;;;;;5033978;28;20211;-80
2021/04/18 10:22:10;;;;;;;6.40;4.70;;;16.00;48.60;;;;;;5017290;28;20290;-81
2021/04/18 10:24:47;;;;;;;6.63;5.70;;;16.20;48.10;;;;;;5023189;28;20250;-82
2021/04/18 10:27:21;;;;;;;5.00;4.50;;;16.60;47.30;;;;;;5037080;28;20231;-80
2021/04/18 10:29:49;;;;;;;4.47;4.03;;;17.00;47.30;;;;;;5029655;28;20212;-81
2021/04/18 10:32:19;;;;;;;5.73;4.40;;;17.60;45.90;;;;;;5018601;28;20233;-81
2021/04/18 10:34:50;;;;;;;4.33;3.90;;;18.10;44.00;;;;;;5031685;28;20275;-80
2021/04/18 10:37:19;;;;;;;5.10;4.20;;;18.50;41.60;;;;;;5035663;28;20284;-80
2021/04/18 10:39:46;;;;;;;4.90;4.40;;;18.60;42.00;;;;;;5029395;28;20643;-80
2021/04/18 10:42:13;;;;;;;5.03;3.90;;;18.40;40.80;;;;;;5022182;28;20220;-81
2021/04/18 10:44:41;;;;;;;4.83;4.33;;;17.90;39.50;;;;;;5027370;28;20220;-82
2021/04/18 10:47:15;;;;;;;6.67;4.70;;;17.40;41.70;;;;;;5029835;28;20652;-82
2021/04/18 10:49:49;;;;;;;5.83;4.83;;;17.10;42.50;;;;;;5031284;28;20291;-80
2021/04/18 10:52:17;;;;;;;8.77;5.60;;;17.20;44.80;;;;;;5035362;28;20241;-80
2021/04/18 10:54:44;;;;;;;6.53;4.90;;;17.50;44.80;;;;;;5033510;28;20230;-82
2021/04/18 10:57:11;;;;;;;6.00;4.77;;;17.70;42.60;;;;;;5027458;28;20215;-81
2021/04/18 10:59:37;;;;;;;6.30;4.97;;;17.80;44.60;;;;;;5029285;28;20215;-80
2021/04/18 11:02:04;;;;;;;7.77;5.67;;;18.00;44.60;;;;;;5029205;28;20219;-82
2021/04/18 11:04:31;;;;;;;5.90;4.77;;;18.30;44.00;;;;;;5030807;28;20220;-81
2021/04/18 11:07:02;;;;;;;6.90;5.33;;;18.50;40.20;;;;;;5029484;28;20235;-81
2021/04/18 11:09:30;;;;;;;7.00;5.57;;;18.30;43.10;;;;;;5035403;28;20212;-80
2021/04/18 11:11:57;;;;;;;6.10;5.50;;;18.40;44.40;;;;;;5026483;28;20451;-81
2021/04/18 11:14:24;;;;;;;8.90;5.90;;;18.30;40.50;;;;;;5018502;28;20215;-81
2021/04/18 11:16:51;;;;;;;6.20;5.03;;;18.20;43.30;;;;;;5022096;28;20234;-81
2021/04/18 11:19:18;;;;;;;5.00;4.57;;;18.10;44.00;;;;;;5034012;28;20524;-81
2021/04/18 11:21:47;;;;;;;5.70;4.00;;;18.20;43.90;;;;;;5032396;28;20357;-82
2021/04/18 11:24:14;;;;;;;5.17;4.53;;;18.20;41.30;;;;;;5041539;28;20651;-81
2021/04/18 11:26:42;;;;;;;4.73;3.97;;;18.30;40.40;;;;;;5037958;28;20237;-80
2021/04/18 11:29:09;;;;;;;7.87;5.37;;;18.40;40.40;;;;;;5032364;28;20219;-81
2021/04/18 11:31:36;;;;;;;5.90;4.87;;;18.50;41.40;;;;;;5025541;28;20222;-81
2021/04/18 11:34:08;;;;;;;6.03;5.37;;;18.60;40.40;;;;;;5038100;28;20203;-80
2021/04/18 11:36:37;;;;;;;6.80;5.27;;;18.40;41.30;;;;;;5038560;28;20297;-81
2021/04/18 11:39:07;;;;;;;7.53;5.60;;;18.00;41.80;;;;;;5026194;28;20245;-81
2021/04/18 11:41:34;;;;;;;6.23;5.63;;;17.50;43.40;;;;;;5027123;28;20223;-82
2021/04/18 11:44:02;;;;;;;8.73;6.57;;;17.10;44.60;;;;;;5030189;28;20662;-80
2021/04/18 11:46:32;;;;;;;7.00;6.13;;;16.70;46.00;;;;;;5032991;28;20745;-82
2021/04/18 11:49:03;;;;;;;7.83;7.00;;;16.90;46.30;;;;;;5022233;28;20282;-82
2021/04/18 11:51:30;;;;;;;6.10;5.50;;;17.20;45.50;;;;;;5024760;28;20219;-82
2021/04/18 11:53:57;;;;;;;6.43;4.53;;;17.60;44.10;;;;;;5011402;28;20219;-80
2021/04/18 11:56:24;;;;;;;6.20;5.00;;;17.70;41.60;;;;;;5023433;28;20223;-83
2021/04/18 11:58:53;;;;;;;6.60;5.87;;;17.50;43.40;;;;;;5020639;28;20220;-82
2021/04/18 12:01:21;;;;;;;6.90;5.87;;;17.40;42.30;;;;;;5034435;28;20217;-81
2021/04/18 12:03:48;;;;;;;8.30;6.40;;;17.30;44.20;;;;;;5028446;28;20302;-82
2021/04/18 12:06:15;;;;;;;7.37;5.70;;;17.20;43.70;;;;;;5039155;28;20231;-82
2021/04/18 12:08:42;;;;;;;6.90;5.67;;;17.00;43.30;;;;;;5035396;28;20239;-82
2021/04/18 12:11:12;;;;;;;9.10;6.20;;;16.90;45.00;;;;;;5036126;28;20237;-81
2021/04/18 12:13:39;;;;;;;6.00;5.40;;;16.80;45.20;;;;;;5020257;28;20226;-79
2021/04/18 12:16:09;;;;;;;6.60;5.43;;;16.90;45.50;;;;;;5021065;28;20216;-81
2021/04/18 12:18:36;;;;;;;6.83;5.43;;;16.90;45.90;;;;;;5020679;28;20563;-80
2021/04/18 12:21:03;;;;;;;8.57;5.67;;;16.80;44.40;;;;;;5053600;28;20234;-80
2021/04/18 12:23:30;;;;;;;5.70;5.03;;;16.80;45.70;;;;;;5040669;28;20310;-82
2021/04/18 12:25:58;;;;;;;6.63;5.70;;;16.80;44.70;;;;;;5040597;28;20231;-82
2021/04/18 12:28:30;;;;;;;5.73;4.83;;;17.00;43.90;;;;;;5039213;28;20211;-81
2021/04/18 12:30:57;;;;;;;8.07;5.80;;;17.10;44.50;;;;;;5032886;28;20220;-82
2021/04/18 12:33:24;;;;;;;5.83;4.77;;;17.40;45.10;;;;;;5019644;28;20651;-81
2021/04/18 12:35:51;;;;;;;7.43;5.60;;;17.80;45.70;;;;;;5024135;28;20659;-81
2021/04/18 12:38:19;;;;;;;7.00;6.27;;;18.10;43.50;;;;;;5033427;28;20230;-80
2021/04/18 12:40:45;;;;;;;5.47;4.67;;;18.20;44.30;;;;;;5025169;28;20225;-80
2021/04/18 12:43:12;;;;;;;8.40;6.50;;;18.20;41.20;;;;;;5034754;28;20210;-80
2021/04/18 12:45:40;;;;;;;10.57;8.80;;;17.90;43.00;;;;;;5037505;28;20290;-81
2021/04/18 12:48:08;;;;;;;14.00;10.23;;;17.70;46.10;;;;;;5034076;28;20211;-81